createdAt,value
2018-01-01T00:01:35.561Z,9.90
2018-01-01T00:04:09.153Z,9.90
2018-01-01T00:06:42.997Z,10.00
2018-01-01T00:09:16.818Z,10.00
2018-01-01T00:11:51.370Z,10.00
2018-01-01T00:14:25.230Z,10.00
2018-01-01T00:17:00.741Z,10.00
2018-01-01T00:19:34.606Z,9.90
2018-01-01T00:22:08.970Z,10.00
2018-01-01T00:24:45.832Z,10.00
2018-01-01T00:27:21.908Z,10.10
2018-01-01T00:29:57.755Z,10.00
2018-01-01T00:32:32.651Z,10.00
2018-01-01T00:35:09.591Z,10.00
2018-01-01T00:37:47.476Z,10.00
2018-01-01T00:40:24.905Z,10.00
2018-01-01T00:43:01.499Z,10.00
2018-01-01T00:45:35.971Z,9.90
2018-01-01T00:48:10.990Z,9.90
2018-01-01T00:50:44.846Z,9.90
2018-01-01T00:53:20.103Z,9.90
2018-01-01T00:55:53.858Z,9.80
2018-01-01T00:58:28.513Z,9.70
2018-01-01T01:01:02.221Z,9.60
2018-01-01T01:03:39.846Z,9.60
2018-01-01T01:06:16.007Z,9.50
2018-01-01T01:08:49.797Z,9.50
2018-01-01T01:11:25.195Z,9.50
2018-01-01T01:13:58.887Z,9.50
2018-01-01T01:16:32.764Z,9.50
2018-01-01T01:19:07.455Z,9.50
2018-01-01T01:21:43.457Z,9.50
2018-01-01T01:24:21.223Z,9.50
2018-01-01T01:26:56.480Z,9.50
2018-01-01T01:29:33.507Z,9.60
2018-01-01T01:32:09.881Z,9.60
2018-01-01T01:34:47.223Z,9.60
2018-01-01T01:37:28.344Z,9.60
2018-01-01T01:40:04.155Z,9.70
2018-01-01T01:42:39.437Z,9.60
2018-01-01T01:45:16.066Z,9.70
2018-01-01T01:47:49.734Z,9.70
2018-01-01T01:50:30.224Z,9.70
2018-01-01T01:53:04.701Z,9.60
2018-01-01T01:55:39.570Z,9.60
2018-01-01T01:58:13.667Z,9.60
2018-01-01T02:00:47.400Z,9.50
2018-01-01T02:03:21.972Z,9.50
2018-01-01T02:05:56.343Z,9.50
2018-01-01T02:08:30.147Z,9.60
2018-01-01T02:11:04.637Z,9.50
2018-01-01T02:13:38.470Z,9.60
2018-01-01T02:16:12.237Z,9.60
2018-01-01T02:18:46.124Z,9.60
2018-01-01T02:24:00.977Z,9.60
2018-01-01T02:26:34.892Z,9.50
2018-01-01T02:29:10.022Z,9.50
2018-01-01T02:31:44.797Z,9.50
2018-01-01T02:34:19.102Z,9.50
2018-01-01T02:36:53.789Z,9.50
2018-01-01T02:39:28.432Z,9.50
2018-01-01T02:42:02.350Z,9.50
2018-01-01T02:44:35.997Z,9.40
2018-01-01T02:47:09.729Z,9.40
2018-01-01T02:49:44.325Z,9.30
2018-01-01T02:52:18.737Z,9.20
2018-01-01T02:54:52.489Z,9.20
2018-01-01T02:57:26.341Z,9.20
2018-01-01T03:00:00.893Z,9.00
2018-01-01T03:02:34.520Z,9.00
2018-01-01T03:05:08.372Z,8.90
2018-01-01T03:07:43.225Z,8.80
2018-01-01T03:10:17.306Z,8.80
2018-01-01T03:12:52.420Z,8.70
2018-01-01T03:15:29.864Z,8.70
2018-01-01T03:18:03.755Z,8.70
2018-01-01T03:20:37.790Z,8.70
2018-01-01T03:23:12.248Z,8.60
2018-01-01T03:25:46.080Z,8.60
2018-01-01T03:28:20.189Z,8.60
2018-01-01T03:30:53.946Z,8.50
2018-01-01T03:33:27.961Z,8.50
2018-01-01T03:36:01.732Z,8.50
2018-01-01T03:38:35.472Z,8.50
2018-01-01T03:41:09.218Z,8.40
2018-01-01T03:43:43.024Z,8.40
2018-01-01T03:46:16.741Z,8.40
2018-01-01T03:48:50.521Z,8.40
2018-01-01T03:51:24.502Z,8.40
2018-01-01T03:53:59.114Z,8.40
2018-01-01T03:56:33.945Z,8.50
2018-01-01T03:59:07.752Z,8.50
2018-01-01T04:01:43.349Z,8.50
2018-01-01T04:04:19.224Z,8.60
2018-01-01T04:06:53.717Z,8.60
2018-01-01T04:09:27.547Z,8.60
2018-01-01T04:12:04.232Z,8.60
2018-01-01T04:14:38.003Z,8.60
2018-01-01T04:17:11.724Z,8.60
2018-01-01T04:19:46.513Z,8.60
2018-01-01T04:22:20.176Z,8.50
2018-01-01T04:24:54.660Z,8.50
2018-01-01T04:27:28.363Z,8.50
2018-01-01T04:30:03.069Z,8.50
2018-01-01T04:32:36.772Z,8.50
2018-01-01T04:35:10.424Z,8.50
2018-01-01T04:37:44.250Z,8.40
2018-01-01T04:40:17.941Z,8.50
2018-01-01T04:42:52.815Z,8.50
2018-01-01T04:45:27.246Z,8.50
2018-01-01T04:48:00.908Z,8.50
2018-01-01T04:50:34.635Z,8.40
2018-01-01T04:53:08.233Z,8.30
2018-01-01T04:55:42.060Z,8.30
2018-01-01T04:58:15.762Z,8.20
2018-01-01T05:00:51.685Z,8.20
2018-01-01T05:03:25.482Z,8.20
2018-01-01T05:05:59.338Z,8.20
2018-01-01T05:08:32.930Z,8.20
2018-01-01T05:11:06.660Z,8.20
2018-01-01T05:13:40.221Z,8.30
2018-01-01T05:16:14.764Z,8.30
2018-01-01T05:18:49.832Z,8.30
2018-01-01T05:21:23.429Z,8.40
2018-01-01T05:23:56.985Z,8.30
2018-01-01T05:26:30.784Z,8.30
2018-01-01T05:29:04.919Z,8.20
2018-01-01T05:31:38.664Z,8.20
2018-01-01T05:34:13.695Z,8.10
2018-01-01T05:36:47.376Z,8.10
2018-01-01T05:39:21.152Z,8.10
2018-01-01T05:41:55.839Z,8.10
2018-01-01T05:44:29.538Z,8.10
2018-01-01T05:47:03.345Z,8.10
2018-01-01T05:49:37.260Z,8.10
2018-01-01T05:52:11.151Z,8.20
2018-01-01T05:54:45.013Z,8.20
2018-01-01T05:57:19.635Z,8.10
2018-01-01T05:59:54.450Z,8.10
2018-01-01T06:02:29.202Z,8.10
2018-01-01T06:05:03.749Z,8.20
2018-01-01T06:07:37.484Z,8.20
2018-01-01T06:10:13.695Z,8.10
2018-01-01T06:12:47.540Z,8.20
2018-01-01T06:15:21.382Z,8.20
2018-01-01T06:17:55.177Z,8.10
2018-01-01T06:20:28.827Z,8.10
2018-01-01T06:23:02.575Z,8.20
2018-01-01T06:25:36.365Z,8.30
2018-01-01T06:28:10.506Z,8.30
2018-01-01T06:30:44.955Z,8.30
2018-01-01T06:33:18.585Z,8.30
2018-01-01T06:35:53.998Z,8.30
2018-01-01T06:38:29.439Z,8.30
2018-01-01T06:41:22.699Z,8.30
2018-01-01T06:43:59.432Z,8.30
2018-01-01T06:46:35.502Z,8.30
2018-01-01T06:49:10.374Z,8.20
2018-01-01T06:51:45.696Z,8.20
2018-01-01T06:54:19.341Z,8.10
2018-01-01T06:56:53.104Z,8.00
2018-01-01T06:59:27.279Z,8.00
2018-01-01T07:02:03.034Z,7.90
2018-01-01T07:04:36.841Z,7.70
2018-01-01T07:07:10.582Z,7.40
2018-01-01T07:09:44.336Z,7.20
2018-01-01T07:12:19.141Z,7.10
2018-01-01T07:14:53.078Z,7.10
2018-01-01T07:17:27.532Z,7.00
2018-01-01T07:20:02.427Z,7.10
2018-01-01T07:22:36.269Z,7.20
2018-01-01T07:25:11.316Z,7.20
2018-01-01T07:27:45.486Z,7.10
2018-01-01T07:30:19.326Z,7.20
2018-01-01T07:32:53.012Z,7.20
2018-01-01T07:35:26.745Z,7.20
2018-01-01T07:38:01.331Z,7.20
2018-01-01T07:40:35.751Z,7.10
2018-01-01T07:43:09.443Z,7.10
2018-01-01T07:45:43.160Z,7.10
2018-01-01T07:48:16.992Z,7.10
2018-01-01T07:50:50.714Z,7.10
2018-01-01T07:53:24.625Z,7.10
2018-01-01T07:55:58.384Z,7.00
2018-01-01T07:58:32.101Z,7.00
2018-01-01T08:01:06.082Z,7.10
2018-01-01T08:03:40.374Z,7.10
2018-01-01T08:06:14.373Z,7.10
2018-01-01T08:08:48.413Z,7.00
2018-01-01T08:11:22.352Z,7.10
2018-01-01T08:13:56.213Z,7.00
2018-01-01T08:16:30.326Z,7.10
2018-01-01T08:19:05.054Z,7.10
2018-01-01T08:21:41.202Z,7.10
2018-01-01T08:24:16.926Z,7.20
2018-01-01T08:26:50.764Z,7.20
2018-01-01T08:29:24.914Z,7.20
2018-01-01T08:31:58.780Z,7.20
2018-01-01T08:34:32.760Z,7.30
2018-01-01T08:37:06.497Z,7.30
2018-01-01T08:39:40.216Z,7.40
2018-01-01T08:42:14.068Z,7.30
2018-01-01T08:44:47.872Z,7.10
2018-01-01T08:47:21.715Z,6.80
2018-01-01T08:49:56.287Z,5.30
2018-01-01T08:52:30.928Z,5.30
2018-01-01T08:55:05.392Z,5.30
2018-01-01T08:57:40.118Z,5.30
2018-01-01T09:00:13.886Z,5.30
2018-01-01T09:02:47.630Z,5.30
2018-01-01T09:05:23.559Z,5.30
2018-01-01T09:07:58.624Z,5.20
2018-01-01T09:10:32.939Z,5.20
2018-01-01T09:13:06.716Z,5.10
2018-01-01T09:15:40.465Z,5.10
2018-01-01T09:20:57.513Z,5.20
2018-01-01T09:23:32.102Z,5.30
2018-01-01T09:26:05.817Z,5.40
2018-01-01T09:28:40.280Z,5.60
2018-01-01T09:31:17.574Z,5.60
2018-01-01T09:33:51.339Z,5.60
2018-01-01T09:36:25.193Z,5.70
2018-01-01T09:38:58.890Z,5.90
2018-01-01T09:41:32.709Z,5.90
2018-01-01T09:44:13.478Z,6.00
2018-01-01T09:46:47.801Z,5.90
2018-01-01T09:49:24.222Z,5.90
2018-01-01T09:52:00.383Z,6.00
2018-01-01T09:54:36.073Z,6.00
2018-01-01T09:57:10.817Z,6.00
2018-01-01T09:59:44.622Z,6.00
2018-01-01T10:02:24.782Z,6.00
2018-01-01T10:04:59.010Z,6.00
2018-01-01T10:07:32.628Z,5.90
2018-01-01T10:10:07.409Z,5.90
2018-01-01T10:12:43.056Z,6.00
2018-01-01T10:15:18.061Z,6.00
2018-01-01T10:17:52.585Z,6.10
2018-01-01T10:20:28.136Z,6.10
2018-01-01T10:23:01.850Z,6.10
2018-01-01T10:25:37.954Z,6.10
2018-01-01T10:28:12.972Z,6.20
2018-01-01T10:30:46.808Z,6.20
2018-01-01T10:33:22.632Z,6.30
2018-01-01T10:35:58.823Z,6.40
2018-01-01T10:38:40.845Z,6.40
2018-01-01T10:41:18.459Z,6.50
2018-01-01T10:43:52.000Z,6.50
2018-01-01T10:46:25.830Z,6.60
2018-01-01T10:48:59.941Z,6.70
2018-01-01T10:51:33.974Z,6.70
2018-01-01T10:54:12.197Z,6.60
2018-01-01T10:56:48.728Z,6.60
2018-01-01T11:20:11.572Z,7.00
2018-01-01T11:22:45.408Z,7.10
2018-01-01T11:25:21.715Z,7.10
2018-01-01T11:27:55.520Z,7.10
2018-01-01T11:30:31.251Z,7.10
2018-01-01T11:33:07.595Z,7.20
2018-01-01T11:35:41.653Z,7.20
2018-01-01T11:38:18.002Z,7.20
2018-01-01T11:41:01.909Z,7.30
2018-01-01T11:43:35.788Z,7.20
2018-01-01T11:46:09.720Z,7.30
2018-01-01T11:49:00.210Z,7.30
2018-01-01T11:51:38.863Z,7.30
2018-01-01T11:57:17.779Z,7.40
2018-01-01T11:59:53.131Z,7.40
2018-01-01T12:02:29.197Z,7.40
2018-01-01T12:05:10.155Z,7.50
2018-01-01T12:07:46.556Z,7.50
2018-01-01T12:10:22.016Z,7.50
2018-01-01T12:15:39.048Z,7.70
2018-01-01T12:18:21.757Z,7.80
2018-01-01T12:20:57.216Z,8.00
2018-01-01T12:26:11.704Z,8.20
2018-01-01T12:31:38.518Z,8.30
2018-01-01T12:34:13.780Z,8.30
2018-01-01T12:36:48.460Z,8.30
2018-01-01T12:39:23.398Z,8.20
2018-01-01T12:47:45.930Z,8.10
2018-01-01T12:50:21.835Z,8.10
2018-01-01T12:55:48.190Z,8.00
2018-01-01T12:58:27.321Z,7.90
2018-01-01T13:12:57.573Z,8.00
2018-01-01T13:15:31.936Z,8.20
2018-01-01T13:18:08.456Z,8.20
2018-01-01T13:20:43.144Z,8.20
2018-01-01T13:23:17.406Z,8.10
2018-01-01T13:25:52.123Z,8.00
2018-01-01T13:28:26.978Z,7.90
2018-01-01T13:31:01.805Z,7.80
2018-01-01T13:33:37.496Z,7.80
2018-01-01T13:39:00.920Z,8.00
2018-01-01T13:41:34.821Z,8.00
2018-01-01T13:44:12.581Z,8.00
2018-01-01T13:46:49.097Z,8.10
2018-01-01T13:49:23.038Z,8.20
2018-01-01T13:51:59.657Z,8.40
2018-01-01T13:54:40.580Z,8.50
2018-01-01T13:57:24.703Z,8.50
2018-01-01T13:59:58.699Z,8.50
2018-01-01T14:05:33.385Z,8.30
2018-01-01T14:08:07.139Z,8.10
2018-01-01T14:10:41.659Z,8.00
2018-01-01T14:13:16.072Z,7.90
2018-01-01T14:15:49.772Z,7.80
2018-01-01T14:18:23.489Z,7.70
2018-01-01T14:20:57.420Z,7.60
2018-01-01T14:23:31.389Z,7.50
2018-01-01T14:26:05.261Z,7.50
2018-01-01T14:28:38.950Z,7.40
2018-01-01T14:31:12.904Z,7.40
2018-01-01T14:33:46.680Z,7.40
2018-01-01T14:36:20.315Z,7.40
2018-01-01T14:38:54.061Z,7.40
2018-01-01T14:41:27.805Z,7.40
2018-01-01T14:44:01.601Z,7.40
2018-01-01T14:46:35.317Z,7.40
2018-01-01T14:49:09.223Z,7.40
2018-01-01T14:51:42.964Z,7.40
2018-01-01T14:54:16.580Z,7.40
2018-01-01T14:56:51.008Z,7.40
2018-01-01T14:59:24.756Z,7.40
2018-01-01T15:01:58.768Z,7.40
2018-01-01T15:04:32.332Z,7.40
2018-01-01T15:07:06.172Z,7.40
2018-01-01T15:09:47.108Z,7.40
2018-01-01T15:12:23.178Z,7.40
2018-01-01T15:15:05.480Z,7.50
2018-01-01T15:17:42.368Z,7.40
2018-01-01T15:20:16.161Z,7.40
2018-01-01T15:22:49.761Z,7.40
2018-01-01T15:25:23.568Z,7.40
2018-01-01T15:27:57.186Z,7.40
2018-01-01T15:33:17.757Z,7.40
2018-01-01T15:39:00.045Z,7.40
2018-01-01T15:41:33.787Z,7.40
2018-01-01T15:44:09.087Z,7.30
2018-01-01T15:46:42.894Z,7.20
2018-01-01T15:49:16.616Z,7.00
2018-01-01T15:51:51.282Z,6.90
2018-01-01T15:54:25.803Z,6.70
2018-01-01T16:08:59.077Z,6.50
2018-01-01T16:11:33.264Z,6.60
2018-01-01T16:14:08.184Z,6.60
2018-01-01T16:16:42.859Z,6.50
2018-01-01T16:19:16.869Z,6.50
2018-01-01T16:21:52.964Z,6.50
2018-01-01T16:24:27.538Z,6.40
2018-01-01T16:27:03.330Z,6.40
2018-01-01T16:29:37.230Z,6.30
2018-01-01T16:32:13.015Z,6.20
2018-01-01T16:34:47.757Z,6.20
2018-01-01T16:37:21.718Z,6.10
2018-01-01T16:39:56.227Z,6.10
2018-01-01T16:42:30.492Z,6.00
2018-01-01T16:45:05.608Z,5.90
2018-01-01T16:47:39.390Z,5.90
2018-01-01T16:50:13.152Z,5.90
2018-01-01T16:52:47.774Z,5.80
2018-01-01T16:55:22.118Z,5.70
2018-01-01T16:57:57.421Z,5.70
2018-01-01T17:00:31.191Z,5.70
2018-01-01T17:03:05.858Z,5.50
2018-01-01T17:05:50.279Z,5.50
2018-01-01T17:08:24.908Z,5.40
2018-01-01T17:10:59.577Z,5.30
2018-01-01T17:13:34.144Z,5.40
2018-01-01T17:16:09.270Z,5.40
2018-01-01T17:18:43.668Z,5.40
2018-01-01T17:21:17.355Z,5.40
2018-01-01T17:23:51.897Z,5.50
2018-01-01T17:26:26.499Z,5.50
2018-01-01T17:29:02.666Z,5.50
2018-01-01T17:31:37.905Z,5.50
2018-01-01T17:34:11.648Z,5.50
2018-01-01T17:36:45.496Z,5.60
2018-01-01T17:39:19.874Z,5.60
2018-01-01T17:41:55.502Z,5.70
2018-01-01T17:44:30.590Z,5.70
2018-01-01T17:47:04.896Z,5.80
2018-01-01T17:55:03.563Z,5.80
2018-01-01T17:57:41.457Z,5.70
2018-01-01T18:00:15.823Z,5.70
2018-01-01T18:02:56.884Z,5.70
2018-01-01T18:05:31.103Z,5.70
2018-01-01T18:11:32.396Z,5.80
2018-01-01T18:14:18.656Z,5.80
2018-01-01T18:20:00.859Z,5.90
2018-01-01T18:22:34.570Z,6.00
2018-01-01T18:25:09.469Z,6.10
2018-01-01T18:27:43.372Z,6.10
2018-01-01T18:30:17.066Z,6.20
2018-01-01T18:32:50.868Z,6.20
2018-01-01T18:35:24.650Z,6.20
2018-01-01T18:37:58.242Z,6.20
2018-01-01T18:40:33.126Z,6.20
2018-01-01T18:43:07.242Z,6.20
2018-01-01T18:45:40.896Z,6.20
2018-01-01T18:48:14.706Z,6.20
2018-01-01T18:50:49.237Z,6.20
2018-01-01T18:53:23.128Z,6.20
2018-01-01T18:55:56.788Z,6.20
2018-01-01T19:01:13.129Z,6.30
2018-01-01T19:03:49.085Z,6.30
2018-01-01T19:18:08.814Z,6.20
2018-01-01T19:20:42.669Z,6.30
2018-01-01T19:23:27.692Z,6.30
2018-01-01T19:26:02.152Z,6.30
2018-01-01T19:28:39.396Z,6.30
2018-01-01T19:34:26.800Z,6.30
2018-01-01T19:37:01.193Z,6.30
2018-01-01T19:39:38.633Z,6.30
2018-01-01T19:42:13.711Z,6.30
2018-01-01T19:50:14.035Z,6.40
2018-01-01T19:53:06.926Z,6.40
2018-01-01T19:58:48.165Z,6.40
2018-01-01T20:01:25.606Z,6.40
2018-01-01T20:06:40.437Z,6.50
2018-01-01T20:09:16.380Z,6.50
2018-01-01T20:14:59.128Z,6.50
2018-01-01T20:25:45.308Z,6.50
2018-01-01T20:28:20.352Z,6.50
2018-01-01T20:30:56.633Z,6.50
2018-01-01T20:36:27.382Z,6.30
2018-01-01T20:39:02.466Z,6.30
2018-01-01T20:49:50.860Z,6.10
2018-01-01T20:52:26.777Z,6.00
2018-01-01T20:55:00.757Z,6.00
2018-01-01T20:57:38.806Z,6.00
2018-01-01T21:00:25.750Z,6.00
2018-01-01T21:05:50.261Z,6.00
2018-01-01T21:08:24.056Z,6.00
2018-01-01T21:10:57.715Z,6.00
2018-01-01T21:13:32.996Z,6.00
2018-01-01T21:16:06.602Z,6.00
2018-01-01T21:18:44.318Z,6.00
2018-01-01T21:21:26.150Z,6.00
2018-01-01T21:24:01.747Z,6.00
2018-01-01T21:26:36.248Z,6.00
2018-01-01T21:32:08.447Z,6.00
2018-01-01T21:34:42.528Z,6.00
2018-01-01T21:37:19.259Z,5.90
2018-01-01T21:39:54.744Z,5.90
2018-01-01T21:42:29.589Z,5.90
2018-01-01T21:45:05.141Z,5.90
2018-01-01T21:47:40.335Z,5.90
2018-01-01T21:50:16.094Z,6.00
2018-01-01T21:52:54.644Z,6.00
2018-01-01T21:55:28.680Z,5.90
2018-01-01T21:58:03.532Z,5.90
2018-01-01T22:00:38.151Z,5.90
2018-01-01T22:03:11.975Z,5.90
2018-01-01T22:05:45.704Z,5.90
2018-01-01T22:08:26.317Z,5.80
2018-01-01T22:11:05.410Z,5.80
2018-01-01T22:16:31.562Z,5.80
2018-01-01T22:19:05.264Z,5.70
2018-01-01T22:21:59.808Z,5.70
2018-01-01T22:30:43.592Z,5.70
2018-01-01T22:33:17.241Z,5.60
2018-01-01T22:35:51.900Z,5.60
2018-01-01T22:38:25.573Z,5.60
2018-01-01T22:41:00.039Z,5.60
2018-01-01T22:43:34.560Z,5.50
2018-01-01T22:46:10.498Z,5.50
2018-01-01T22:48:45.136Z,5.60
2018-01-01T22:51:19.009Z,5.60
2018-01-01T22:53:53.667Z,5.60
2018-01-01T22:56:28.694Z,5.50
2018-01-01T22:59:06.726Z,5.50
2018-01-01T23:01:42.626Z,5.50
2018-01-01T23:04:17.186Z,5.50
2018-01-01T23:06:51.011Z,5.50
2018-01-01T23:09:26.341Z,5.60
2018-01-01T23:12:00.203Z,5.60
2018-01-01T23:14:35.357Z,5.60
2018-01-01T23:17:10.066Z,5.60
2018-01-01T23:19:44.580Z,5.60
2018-01-01T23:22:21.624Z,5.60
2018-01-01T23:24:56.045Z,5.60
2018-01-01T23:27:29.744Z,5.60
2018-01-01T23:30:05.520Z,5.60
2018-01-01T23:32:40.311Z,5.60
2018-01-01T23:35:15.176Z,5.60
2018-01-01T23:37:50.459Z,5.60
2018-01-01T23:40:24.055Z,5.50
2018-01-01T23:42:57.821Z,5.50
2018-01-01T23:45:33.039Z,5.50
2018-01-01T23:48:07.519Z,5.50
2018-01-01T23:50:41.445Z,5.60
2018-01-01T23:53:16.125Z,5.50
2018-01-01T23:55:51.452Z,5.50
2018-01-01T23:58:27.422Z,5.50
